sensor_id;sensor_type;location;lat;lon;timestamp;pressure;altitude;pressure_sealevel;temperature;humidity
80128;BME280;69440;52.118;5.408;2023-07-20T00:01:51;101585.34;;;17.66;81.19
80128;BME280;69440;52.118;5.408;2023-07-20T00:04:17;101580.16;;;17.63;81.26
80128;BME280;69440;52.118;5.408;2023-07-20T00:06:44;101588.19;;;17.64;81.27
80128;BME280;69440;52.118;5.408;2023-07-20T00:09:11;101590.06;;;17.64;81.02
80128;BME280;69440;52.118;5.408;2023-07-20T00:11:39;101580.91;;;17.65;81.40
80128;BME280;69440;52.118;5.408;2023-07-20T00:14:06;101576.81;;;17.59;81.55
80128;BME280;69440;52.118;5.408;2023-07-20T00:16:33;101585.84;;;17.60;81.81
80128;BME280;69440;52.118;5.408;2023-07-20T00:18:59;101578.91;;;17.56;81.34
80128;BME280;69440;52.118;5.408;2023-07-20T00:21:26;101582.44;;;17.45;81.05
80128;BME280;69440;52.118;5.408;2023-07-20T00:23:52;101583.75;;;17.39;81.60
80128;BME280;69440;52.118;5.408;2023-07-20T00:26:19;101584.63;;;17.40;81.44
80128;BME280;69440;52.118;5.408;2023-07-20T00:28:46;101591.78;;;17.41;80.95
80128;BME280;69440;52.118;5.408;2023-07-20T00:31:13;101592.38;;;17.33;80.89
80128;BME280;69440;52.118;5.408;2023-07-20T00:33:39;101580.00;;;17.29;80.89
80128;BME280;69440;52.118;5.408;2023-07-20T00:36:06;101586.66;;;17.25;80.80
80128;BME280;69440;52.118;5.408;2023-07-20T00:38:32;101581.22;;;17.25;80.82
80128;BME280;69440;52.118;5.408;2023-07-20T00:40:59;101583.53;;;17.19;80.83
80128;BME280;69440;52.118;5.408;2023-07-20T00:43:25;101583.22;;;17.11;80.52
80128;BME280;69440;52.118;5.408;2023-07-20T00:45:52;101586.41;;;17.04;80.74
80128;BME280;69440;52.118;5.408;2023-07-20T00:48:19;101589.56;;;16.98;81.04
80128;BME280;69440;52.118;5.408;2023-07-20T00:50:46;101587.31;;;16.92;80.93
80128;BME280;69440;52.118;5.408;2023-07-20T00:53:14;101588.75;;;16.85;81.26
80128;BME280;69440;52.118;5.408;2023-07-20T00:55:41;101588.94;;;16.82;81.33
80128;BME280;69440;52.118;5.408;2023-07-20T00:58:08;101584.50;;;16.81;81.62
80128;BME280;69440;52.118;5.408;2023-07-20T01:00:35;101589.19;;;16.79;81.54
80128;BME280;69440;52.118;5.408;2023-07-20T01:03:01;101587.16;;;16.70;81.37
80128;BME280;69440;52.118;5.408;2023-07-20T01:05:54;101587.78;;;16.61;81.64
80128;BME280;69440;52.118;5.408;2023-07-20T01:14:26;101592.88;;;16.53;81.30
80128;BME280;69440;52.118;5.408;2023-07-20T01:16:53;101595.69;;;16.51;81.37
80128;BME280;69440;52.118;5.408;2023-07-20T01:19:20;101584.41;;;16.44;81.64
80128;BME280;69440;52.118;5.408;2023-07-20T01:32:36;101594.66;;;16.28;81.42
80128;BME280;69440;52.118;5.408;2023-07-20T01:35:05;101597.69;;;16.24;81.75
80128;BME280;69440;52.118;5.408;2023-07-20T01:37:33;101600.69;;;16.19;81.43
80128;BME280;69440;52.118;5.408;2023-07-20T01:40:00;101593.66;;;16.17;81.75
80128;BME280;69440;52.118;5.408;2023-07-20T01:42:27;101595.59;;;16.14;81.58
80128;BME280;69440;52.118;5.408;2023-07-20T01:44:54;101590.63;;;16.08;81.22
80128;BME280;69440;52.118;5.408;2023-07-20T01:47:20;101588.97;;;16.06;81.86
80128;BME280;69440;52.118;5.408;2023-07-20T01:49:47;101593.75;;;16.02;81.55
80128;BME280;69440;52.118;5.408;2023-07-20T01:52:14;101591.59;;;15.95;82.02
80128;BME280;69440;52.118;5.408;2023-07-20T01:54:41;101598.28;;;15.89;82.13
80128;BME280;69440;52.118;5.408;2023-07-20T01:57:07;101605.66;;;15.87;82.47
80128;BME280;69440;52.118;5.408;2023-07-20T01:59:34;101611.59;;;15.79;82.34
80128;BME280;69440;52.118;5.408;2023-07-20T02:02:00;101610.41;;;15.83;82.04
80128;BME280;69440;52.118;5.408;2023-07-20T02:04:27;101615.94;;;15.82;81.83
80128;BME280;69440;52.118;5.408;2023-07-20T02:06:53;101609.00;;;15.78;82.19
80128;BME280;69440;52.118;5.408;2023-07-20T02:09:20;101603.25;;;15.70;82.19
80128;BME280;69440;52.118;5.408;2023-07-20T02:11:46;101597.16;;;15.66;82.08
80128;BME280;69440;52.118;5.408;2023-07-20T02:14:13;101605.50;;;15.63;82.09
80128;BME280;69440;52.118;5.408;2023-07-20T02:16:39;101603.84;;;15.61;81.99
80128;BME280;69440;52.118;5.408;2023-07-20T02:19:06;101605.50;;;15.63;82.18
80128;BME280;69440;52.118;5.408;2023-07-20T02:21:33;101602.69;;;15.65;81.57
80128;BME280;69440;52.118;5.408;2023-07-20T02:24:01;101602.59;;;15.66;81.99
80128;BME280;69440;52.118;5.408;2023-07-20T02:26:27;101607.78;;;15.69;82.29
80128;BME280;69440;52.118;5.408;2023-07-20T02:28:54;101605.19;;;15.68;81.76
80128;BME280;69440;52.118;5.408;2023-07-20T02:31:22;101604.44;;;15.66;81.97
80128;BME280;69440;52.118;5.408;2023-07-20T02:33:48;101607.25;;;15.64;81.65
80128;BME280;69440;52.118;5.408;2023-07-20T02:36:15;101601.06;;;15.62;81.28
80128;BME280;69440;52.118;5.408;2023-07-20T02:38:43;101601.13;;;15.61;82.09
80128;BME280;69440;52.118;5.408;2023-07-20T02:41:09;101599.50;;;15.58;81.63
80128;BME280;69440;52.118;5.408;2023-07-20T02:43:36;101603.25;;;15.56;81.41
80128;BME280;69440;52.118;5.408;2023-07-20T02:46:02;101600.00;;;15.50;81.21
80128;BME280;69440;52.118;5.408;2023-07-20T02:48:29;101599.22;;;15.48;81.79
80128;BME280;69440;52.118;5.408;2023-07-20T02:50:55;101607.69;;;15.44;81.90
80128;BME280;69440;52.118;5.408;2023-07-20T02:53:22;101608.75;;;15.41;81.41
80128;BME280;69440;52.118;5.408;2023-07-20T02:55:48;101612.94;;;15.33;82.14
80128;BME280;69440;52.118;5.408;2023-07-20T02:58:15;101607.63;;;15.31;82.11
80128;BME280;69440;52.118;5.408;2023-07-20T03:00:43;101614.19;;;15.27;82.96
80128;BME280;69440;52.118;5.408;2023-07-20T03:03:10;101616.34;;;15.22;82.52
80128;BME280;69440;52.118;5.408;2023-07-20T03:05:40;101623.81;;;15.18;82.80
80128;BME280;69440;52.118;5.408;2023-07-20T03:08:08;101632.03;;;15.17;81.91
80128;BME280;69440;52.118;5.408;2023-07-20T03:10:40;101639.38;;;15.15;81.85
80128;BME280;69440;52.118;5.408;2023-07-20T03:13:07;101635.16;;;15.11;82.11
80128;BME280;69440;52.118;5.408;2023-07-20T03:15:34;101636.13;;;15.10;82.01
80128;BME280;69440;52.118;5.408;2023-07-20T03:18:00;101645.50;;;15.04;81.89
80128;BME280;69440;52.118;5.408;2023-07-20T03:20:27;101650.25;;;15.01;81.31
80128;BME280;69440;52.118;5.408;2023-07-20T03:22:53;101653.13;;;14.98;81.33
80128;BME280;69440;52.118;5.408;2023-07-20T03:25:20;101654.88;;;14.99;81.77
80128;BME280;69440;52.118;5.408;2023-07-20T03:27:47;101646.94;;;14.96;82.18
80128;BME280;69440;52.118;5.408;2023-07-20T03:30:14;101649.97;;;14.91;81.83
80128;BME280;69440;52.118;5.408;2023-07-20T03:32:40;101649.09;;;14.90;81.69
80128;BME280;69440;52.118;5.408;2023-07-20T03:35:07;101645.63;;;14.88;81.02
80128;BME280;69440;52.118;5.408;2023-07-20T03:37:34;101642.13;;;14.86;81.81
80128;BME280;69440;52.118;5.408;2023-07-20T03:40:02;101641.28;;;14.86;81.66
80128;BME280;69440;52.118;5.408;2023-07-20T03:42:29;101649.41;;;14.86;81.68
80128;BME280;69440;52.118;5.408;2023-07-20T03:44:55;101655.69;;;14.86;81.47
80128;BME280;69440;52.118;5.408;2023-07-20T03:47:22;101644.19;;;14.83;81.38
80128;BME280;69440;52.118;5.408;2023-07-20T03:49:50;101650.66;;;14.80;81.65
80128;BME280;69440;52.118;5.408;2023-07-20T03:52:16;101649.88;;;14.78;82.34
80128;BME280;69440;52.118;5.408;2023-07-20T03:54:43;101658.88;;;14.79;82.05
80128;BME280;69440;52.118;5.408;2023-07-20T03:57:10;101648.16;;;14.77;81.48
80128;BME280;69440;52.118;5.408;2023-07-20T03:59:39;101656.16;;;14.79;81.69
80128;BME280;69440;52.118;5.408;2023-07-20T04:02:10;101650.75;;;14.79;81.56
80128;BME280;69440;52.118;5.408;2023-07-20T04:04:37;101657.25;;;14.76;81.29
80128;BME280;69440;52.118;5.408;2023-07-20T04:07:03;101661.09;;;14.72;81.63
80128;BME280;69440;52.118;5.408;2023-07-20T04:09:31;101665.81;;;14.69;82.15
80128;BME280;69440;52.118;5.408;2023-07-20T04:11:58;101658.28;;;14.59;82.19
80128;BME280;69440;52.118;5.408;2023-07-20T04:14:24;101664.75;;;14.57;82.36
80128;BME280;69440;52.118;5.408;2023-07-20T04:16:51;101661.00;;;14.59;82.19
80128;BME280;69440;52.118;5.408;2023-07-20T04:19:17;101664.47;;;14.62;82.52
80128;BME280;69440;52.118;5.408;2023-07-20T04:21:44;101666.09;;;14.64;81.92
80128;BME280;69440;52.118;5.408;2023-07-20T04:24:11;101668.81;;;14.64;82.38
80128;BME280;69440;52.118;5.408;2023-07-20T04:26:37;101678.66;;;14.65;82.20
80128;BME280;69440;52.118;5.408;2023-07-20T04:29:03;101680.31;;;14.68;82.37
80128;BME280;69440;52.118;5.408;2023-07-20T04:31:30;101681.13;;;14.70;81.97
80128;BME280;69440;52.118;5.408;2023-07-20T04:33:59;101680.22;;;14.69;81.82
80128;BME280;69440;52.118;5.408;2023-07-20T04:36:26;101683.97;;;14.67;81.81
80128;BME280;69440;52.118;5.408;2023-07-20T04:38:52;101684.84;;;14.67;81.99
80128;BME280;69440;52.118;5.408;2023-07-20T04:41:19;101680.69;;;14.62;82.59
80128;BME280;69440;52.118;5.408;2023-07-20T04:43:46;101682.91;;;14.69;83.00
80128;BME280;69440;52.118;5.408;2023-07-20T04:46:13;101686.53;;;14.70;83.21
80128;BME280;69440;52.118;5.408;2023-07-20T04:48:40;101685.38;;;14.74;83.16
80128;BME280;69440;52.118;5.408;2023-07-20T04:51:07;101687.88;;;14.77;82.62
80128;BME280;69440;52.118;5.408;2023-07-20T04:53:33;101683.13;;;14.80;82.50
80128;BME280;69440;52.118;5.408;2023-07-20T04:55:59;101685.84;;;14.80;82.52
80128;BME280;69440;52.118;5.408;2023-07-20T04:58:26;101683.13;;;14.80;82.64
80128;BME280;69440;52.118;5.408;2023-07-20T05:00:53;101685.66;;;14.83;82.67
80128;BME280;69440;52.118;5.408;2023-07-20T05:03:19;101680.03;;;14.86;82.87
80128;BME280;69440;52.118;5.408;2023-07-20T05:05:47;101692.97;;;14.96;82.39
80128;BME280;69440;52.118;5.408;2023-07-20T05:08:16;101685.81;;;14.95;82.54
80128;BME280;69440;52.118;5.408;2023-07-20T05:10:42;101685.72;;;14.96;82.97
80128;BME280;69440;52.118;5.408;2023-07-20T05:13:09;101691.66;;;15.03;82.75
80128;BME280;69440;52.118;5.408;2023-07-20T05:15:36;101689.59;;;15.06;82.91
80128;BME280;69440;52.118;5.408;2023-07-20T05:18:02;101690.75;;;15.16;83.42
80128;BME280;69440;52.118;5.408;2023-07-20T05:20:28;101685.69;;;15.25;82.94
80128;BME280;69440;52.118;5.408;2023-07-20T05:22:55;101688.19;;;15.28;82.92
80128;BME280;69440;52.118;5.408;2023-07-20T05:25:22;101685.03;;;15.21;83.01
80128;BME280;69440;52.118;5.408;2023-07-20T05:27:49;101688.97;;;15.30;83.20
80128;BME280;69440;52.118;5.408;2023-07-20T05:30:16;101689.91;;;15.43;83.31
80128;BME280;69440;52.118;5.408;2023-07-20T05:32:43;101692.63;;;15.43;83.14
80128;BME280;69440;52.118;5.408;2023-07-20T05:35:11;101688.66;;;15.48;82.95
80128;BME280;69440;52.118;5.408;2023-07-20T05:37:38;101693.28;;;15.61;82.87
80128;BME280;69440;52.118;5.408;2023-07-20T05:40:06;101689.97;;;15.70;83.00
80128;BME280;69440;52.118;5.408;2023-07-20T05:42:34;101686.53;;;15.80;82.91
80128;BME280;69440;52.118;5.408;2023-07-20T05:45:00;101688.72;;;15.88;82.57
80128;BME280;69440;52.118;5.408;2023-07-20T05:47:27;101686.88;;;15.89;82.20
80128;BME280;69440;52.118;5.408;2023-07-20T05:49:53;101690.56;;;15.88;82.32
80128;BME280;69440;52.118;5.408;2023-07-20T05:52:20;101691.03;;;15.94;82.72
80128;BME280;69440;52.118;5.408;2023-07-20T05:54:46;101683.66;;;15.96;82.45
80128;BME280;69440;52.118;5.408;2023-07-20T05:57:13;101683.03;;;16.05;81.82
80128;BME280;69440;52.118;5.408;2023-07-20T05:59:39;101681.84;;;16.09;82.39
80128;BME280;69440;52.118;5.408;2023-07-20T06:02:11;101690.53;;;16.14;82.21
80128;BME280;69440;52.118;5.408;2023-07-20T06:04:39;101682.75;;;16.23;82.19
80128;BME280;69440;52.118;5.408;2023-07-20T06:07:06;101687.75;;;16.29;81.04
80128;BME280;69440;52.118;5.408;2023-07-20T06:09:34;101691.22;;;16.31;80.48
80128;BME280;69440;52.118;5.408;2023-07-20T06:12:01;101689.94;;;16.36;81.08
80128;BME280;69440;52.118;5.408;2023-07-20T06:14:27;101696.56;;;16.45;80.86
80128;BME280;69440;52.118;5.408;2023-07-20T06:16:54;101697.78;;;16.54;80.33
80128;BME280;69440;52.118;5.408;2023-07-20T06:19:20;101696.13;;;16.64;81.18
80128;BME280;69440;52.118;5.408;2023-07-20T06:21:48;101698.00;;;16.76;81.10
80128;BME280;69440;52.118;5.408;2023-07-20T06:24:17;101706.78;;;16.80;79.80
80128;BME280;69440;52.118;5.408;2023-07-20T06:26:43;101704.44;;;16.88;80.60
80128;BME280;69440;52.118;5.408;2023-07-20T06:29:10;101700.28;;;16.95;79.45
80128;BME280;69440;52.118;5.408;2023-07-20T06:31:36;101706.25;;;17.00;77.47
80128;BME280;69440;52.118;5.408;2023-07-20T06:34:03;101702.56;;;17.01;76.74
80128;BME280;69440;52.118;5.408;2023-07-20T06:36:30;101707.75;;;17.04;76.04
80128;BME280;69440;52.118;5.408;2023-07-20T06:38:57;101709.16;;;17.10;76.54
80128;BME280;69440;52.118;5.408;2023-07-20T06:41:26;101705.25;;;17.14;76.33
80128;BME280;69440;52.118;5.408;2023-07-20T06:43:55;101715.69;;;17.20;76.24
80128;BME280;69440;52.118;5.408;2023-07-20T06:46:27;101706.78;;;17.18;75.33
80128;BME280;69440;52.118;5.408;2023-07-20T06:48:54;101709.91;;;17.24;76.03
80128;BME280;69440;52.118;5.408;2023-07-20T06:51:24;101721.09;;;17.32;74.78
80128;BME280;69440;52.118;5.408;2023-07-20T06:53:51;101717.91;;;17.38;75.42
80128;BME280;69440;52.118;5.408;2023-07-20T06:56:17;101709.75;;;17.38;74.36
80128;BME280;69440;52.118;5.408;2023-07-20T06:58:47;101719.41;;;17.43;75.34
80128;BME280;69440;52.118;5.408;2023-07-20T07:01:13;101717.25;;;17.48;75.33
80128;BME280;69440;52.118;5.408;2023-07-20T07:03:41;101725.41;;;17.48;74.59
80128;BME280;69440;52.118;5.408;2023-07-20T07:06:07;101726.06;;;17.51;74.93
80128;BME280;69440;52.118;5.408;2023-07-20T07:08:34;101724.09;;;17.53;73.08
80128;BME280;69440;52.118;5.408;2023-07-20T07:11:01;101720.50;;;17.53;73.22
80128;BME280;69440;52.118;5.408;2023-07-20T07:13:28;101720.28;;;17.56;73.41
80128;BME280;69440;52.118;5.408;2023-07-20T07:15:54;101722.69;;;17.84;73.16
80128;BME280;69440;52.118;5.408;2023-07-20T07:18:21;101706.06;;;18.00;71.69
80128;BME280;69440;52.118;5.408;2023-07-20T07:20:52;101711.81;;;18.08;71.13
80128;BME280;69440;52.118;5.408;2023-07-20T07:23:18;101710.00;;;17.96;70.70
80128;BME280;69440;52.118;5.408;2023-07-20T07:25:45;101716.78;;;17.90;70.51
80128;BME280;69440;52.118;5.408;2023-07-20T07:28:12;101730.34;;;17.79;71.09
80128;BME280;69440;52.118;5.408;2023-07-20T07:30:38;101721.44;;;17.77;71.03
80128;BME280;69440;52.118;5.408;2023-07-20T07:33:05;101725.66;;;17.81;71.85
80128;BME280;69440;52.118;5.408;2023-07-20T07:35:31;101717.81;;;18.00;71.98
80128;BME280;69440;52.118;5.408;2023-07-20T07:37:59;101722.88;;;18.29;71.38
80128;BME280;69440;52.118;5.408;2023-07-20T07:40:45;101722.59;;;18.56;71.25
80128;BME280;69440;52.118;5.408;2023-07-20T07:43:12;101725.53;;;18.77;69.16
80128;BME280;69440;52.118;5.408;2023-07-20T07:45:40;101726.56;;;18.98;70.02
80128;BME280;69440;52.118;5.408;2023-07-20T07:48:07;101718.88;;;19.03;67.91
80128;BME280;69440;52.118;5.408;2023-07-20T07:50:34;101720.97;;;19.00;65.30
80128;BME280;69440;52.118;5.408;2023-07-20T07:53:01;101722.47;;;19.04;66.22
80128;BME280;69440;52.118;5.408;2023-07-20T07:55:27;101707.09;;;19.03;66.06
80128;BME280;69440;52.118;5.408;2023-07-20T07:57:54;101719.59;;;18.94;64.50
80128;BME280;69440;52.118;5.408;2023-07-20T08:00:21;101722.31;;;18.94;65.66
80128;BME280;69440;52.118;5.408;2023-07-20T08:02:47;101722.31;;;18.83;64.77
80128;BME280;69440;52.118;5.408;2023-07-20T08:05:17;101722.75;;;18.66;65.88
80128;BME280;69440;52.118;5.408;2023-07-20T08:07:43;101723.69;;;18.53;65.77
80128;BME280;69440;52.118;5.408;2023-07-20T08:10:10;101727.41;;;18.41;66.79
80128;BME280;69440;52.118;5.408;2023-07-20T08:12:36;101721.03;;;18.29;67.08
80128;BME280;69440;52.118;5.408;2023-07-20T08:15:03;101715.97;;;18.36;67.44
80128;BME280;69440;52.118;5.408;2023-07-20T08:17:30;101720.66;;;18.34;67.39
80128;BME280;69440;52.118;5.408;2023-07-20T08:19:57;101721.94;;;18.41;68.01
80128;BME280;69440;52.118;5.408;2023-07-20T08:22:23;101721.34;;;18.60;66.55
80128;BME280;69440;52.118;5.408;2023-07-20T08:24:50;101715.38;;;18.79;63.05
80128;BME280;69440;52.118;5.408;2023-07-20T08:27:16;101719.97;;;18.89;63.48
80128;BME280;69440;52.118;5.408;2023-07-20T08:29:43;101717.88;;;19.04;63.54
80128;BME280;69440;52.118;5.408;2023-07-20T08:32:09;101717.00;;;19.15;63.48
80128;BME280;69440;52.118;5.408;2023-07-20T08:34:36;101716.50;;;19.10;58.81
80128;BME280;69440;52.118;5.408;2023-07-20T08:37:02;101712.03;;;19.20;57.31
80128;BME280;69440;52.118;5.408;2023-07-20T08:39:29;101723.69;;;19.33;58.50
80128;BME280;69440;52.118;5.408;2023-07-20T08:41:56;101729.75;;;19.37;56.03
80128;BME280;69440;52.118;5.408;2023-07-20T08:44:25;101726.41;;;19.33;52.02
80128;BME280;69440;52.118;5.408;2023-07-20T08:46:52;101722.69;;;19.45;54.56
80128;BME280;69440;52.118;5.408;2023-07-20T08:49:19;101720.81;;;19.57;54.78
80128;BME280;69440;52.118;5.408;2023-07-20T08:51:46;101725.75;;;19.74;55.59
80128;BME280;69440;52.118;5.408;2023-07-20T08:54:16;101725.44;;;19.89;53.96
80128;BME280;69440;52.118;5.408;2023-07-20T08:56:44;101722.97;;;19.97;53.59
80128;BME280;69440;52.118;5.408;2023-07-20T08:59:13;101727.50;;;20.07;54.58
80128;BME280;69440;52.118;5.408;2023-07-20T09:01:43;101720.19;;;20.08;52.64
80128;BME280;69440;52.118;5.408;2023-07-20T09:04:11;101719.66;;;20.14;51.80
80128;BME280;69440;52.118;5.408;2023-07-20T09:06:38;101717.75;;;20.26;54.79
80128;BME280;69440;52.118;5.408;2023-07-20T09:09:05;101718.22;;;20.31;50.83
80128;BME280;69440;52.118;5.408;2023-07-20T09:11:32;101715.44;;;20.21;50.53
80128;BME280;69440;52.118;5.408;2023-07-20T09:14:05;101720.19;;;20.40;52.77
80128;BME280;69440;52.118;5.408;2023-07-20T09:16:32;101714.97;;;20.37;51.07
80128;BME280;69440;52.118;5.408;2023-07-20T09:19:14;101703.50;;;20.22;52.09
80128;BME280;69440;52.118;5.408;2023-07-20T09:21:44;101710.59;;;20.45;53.60
80128;BME280;69440;52.118;5.408;2023-07-20T09:24:11;101710.31;;;20.49;51.30
80128;BME280;69440;52.118;5.408;2023-07-20T09:26:41;101718.16;;;20.53;52.28
80128;BME280;69440;52.118;5.408;2023-07-20T09:29:09;101719.06;;;20.63;52.68
80128;BME280;69440;52.118;5.408;2023-07-20T09:31:36;101705.13;;;20.66;51.12
80128;BME280;69440;52.118;5.408;2023-07-20T09:34:06;101716.00;;;20.57;51.76
80128;BME280;69440;52.118;5.408;2023-07-20T09:36:35;101710.69;;;20.55;49.14
80128;BME280;69440;52.118;5.408;2023-07-20T09:39:04;101708.19;;;20.73;50.65
80128;BME280;69440;52.118;5.408;2023-07-20T09:41:40;101709.13;;;20.83;48.51
80128;BME280;69440;52.118;5.408;2023-07-20T09:44:16;101706.31;;;20.94;46.05
80128;BME280;69440;52.118;5.408;2023-07-20T09:46:49;101708.34;;;21.02;45.13
80128;BME280;69440;52.118;5.408;2023-07-20T09:49:19;101708.00;;;21.16;47.67
80128;BME280;69440;52.118;5.408;2023-07-20T09:51:49;101700.31;;;21.41;46.42
80128;BME280;69440;52.118;5.408;2023-07-20T09:54:17;101695.84;;;21.39;43.00
80128;BME280;69440;52.118;5.408;2023-07-20T09:56:44;101696.34;;;21.14;44.30
80128;BME280;69440;52.118;5.408;2023-07-20T09:59:12;101696.22;;;20.95;44.91
80128;BME280;69440;52.118;5.408;2023-07-20T10:01:41;101698.84;;;20.75;47.26
80128;BME280;69440;52.118;5.408;2023-07-20T10:04:11;101702.59;;;20.74;46.12
80128;BME280;69440;52.118;5.408;2023-07-20T10:06:42;101695.53;;;20.72;46.37
80128;BME280;69440;52.118;5.408;2023-07-20T10:09:10;101700.81;;;20.64;46.49
80128;BME280;69440;52.118;5.408;2023-07-20T10:11:42;101699.94;;;20.84;46.80
80128;BME280;69440;52.118;5.408;2023-07-20T10:14:12;101692.44;;;21.17;44.15
80128;BME280;69440;52.118;5.408;2023-07-20T10:16:48;101686.84;;;21.18;44.38
80128;BME280;69440;52.118;5.408;2023-07-20T10:19:25;101691.94;;;21.02;46.14
80128;BME280;69440;52.118;5.408;2023-07-20T10:22:00;101691.72;;;21.15;47.51
80128;BME280;69440;52.118;5.408;2023-07-20T10:24:31;101684.19;;;21.37;43.68
80128;BME280;69440;52.118;5.408;2023-07-20T10:26:58;101689.22;;;21.42;44.06
80128;BME280;69440;52.118;5.408;2023-07-20T10:29:24;101678.63;;;21.68;44.22
80128;BME280;69440;52.118;5.408;2023-07-20T10:31:54;101678.66;;;21.87;43.67
80128;BME280;69440;52.118;5.408;2023-07-20T10:34:22;101682.72;;;21.83;44.29
80128;BME280;69440;52.118;5.408;2023-07-20T10:36:49;101677.53;;;21.80;44.12
80128;BME280;69440;52.118;5.408;2023-07-20T10:39:26;101679.72;;;22.06;44.37
80128;BME280;69440;52.118;5.408;2023-07-20T10:42:07;101680.69;;;22.34;46.47
80128;BME280;69440;52.118;5.408;2023-07-20T10:44:36;101671.06;;;22.39;43.42
80128;BME280;69440;52.118;5.408;2023-07-20T10:47:09;101668.25;;;22.68;45.61
80128;BME280;69440;52.118;5.408;2023-07-20T10:50:00;101671.50;;;22.91;44.94
80128;BME280;69440;52.118;5.408;2023-07-20T10:52:37;101659.66;;;23.00;43.50
80128;BME280;69440;52.118;5.408;2023-07-20T10:55:16;101656.03;;;23.00;42.57
80128;BME280;69440;52.118;5.408;2023-07-20T10:58:06;101668.06;;;22.79;45.36
80128;BME280;69440;52.118;5.408;2023-07-20T11:00:33;101660.34;;;22.46;43.93
80128;BME280;69440;52.118;5.408;2023-07-20T11:02:59;101662.84;;;22.20;45.42
80128;BME280;69440;52.118;5.408;2023-07-20T11:05:38;101675.13;;;22.06;45.82
80128;BME280;69440;52.118;5.408;2023-07-20T11:08:12;101663.25;;;21.86;45.41
80128;BME280;69440;52.118;5.408;2023-07-20T11:10:39;101661.81;;;21.82;48.00
80128;BME280;69440;52.118;5.408;2023-07-20T11:18:26;101652.09;;;22.55;43.37
80128;BME280;69440;52.118;5.408;2023-07-20T11:20:53;101657.19;;;22.41;44.11
80128;BME280;69440;52.118;5.408;2023-07-20T11:23:20;101656.94;;;22.24;43.70
80128;BME280;69440;52.118;5.408;2023-07-20T11:25:47;101649.75;;;22.04;42.09
80128;BME280;69440;52.118;5.408;2023-07-20T11:28:14;101644.38;;;21.93;41.68
80128;BME280;69440;52.118;5.408;2023-07-20T11:30:40;101647.53;;;21.98;44.48
80128;BME280;69440;52.118;5.408;2023-07-20T11:33:10;101644.00;;;22.07;42.98
80128;BME280;69440;52.118;5.408;2023-07-20T11:35:46;101644.13;;;22.15;41.86
80128;BME280;69440;52.118;5.408;2023-07-20T11:38:13;101641.63;;;22.31;42.40
80128;BME280;69440;52.118;5.408;2023-07-20T11:40:46;101638.97;;;22.59;40.86
80128;BME280;69440;52.118;5.408;2023-07-20T11:43:13;101637.72;;;23.00;40.38
80128;BME280;69440;52.118;5.408;2023-07-20T11:45:43;101631.13;;;23.38;39.47
80128;BME280;69440;52.118;5.408;2023-07-20T11:48:17;101635.13;;;23.44;38.62
80128;BME280;69440;52.118;5.408;2023-07-20T11:50:44;101627.75;;;23.90;39.17
80128;BME280;69440;52.118;5.408;2023-07-20T11:53:11;101626.03;;;23.89;38.51
80128;BME280;69440;52.118;5.408;2023-07-20T11:55:39;101626.72;;;23.73;38.11
80128;BME280;69440;52.118;5.408;2023-07-20T11:58:08;101618.19;;;23.76;40.61
80128;BME280;69440;52.118;5.408;2023-07-20T12:00:37;101622.72;;;24.03;40.98
80128;BME280;69440;52.118;5.408;2023-07-20T12:03:06;101620.34;;;24.08;41.85
80128;BME280;69440;52.118;5.408;2023-07-20T12:05:38;101621.38;;;24.07;40.37
80128;BME280;69440;52.118;5.408;2023-07-20T12:08:24;101617.72;;;23.63;39.82
80128;BME280;69440;52.118;5.408;2023-07-20T12:10:51;101627.94;;;23.43;41.49
80128;BME280;69440;52.118;5.408;2023-07-20T12:13:17;101619.97;;;23.22;39.25
80128;BME280;69440;52.118;5.408;2023-07-20T12:15:44;101624.59;;;23.21;43.08
80128;BME280;69440;52.118;5.408;2023-07-20T12:18:10;101611.53;;;23.61;42.33
80128;BME280;69440;52.118;5.408;2023-07-20T12:20:37;101607.63;;;24.25;40.41
80128;BME280;69440;52.118;5.408;2023-07-20T12:23:08;101607.63;;;24.25;38.46
80128;BME280;69440;52.118;5.408;2023-07-20T12:25:46;101608.09;;;24.72;39.05
80128;BME280;69440;52.118;5.408;2023-07-20T12:28:16;101607.25;;;24.45;38.82
80128;BME280;69440;52.118;5.408;2023-07-20T12:30:44;101607.19;;;23.76;38.57
80128;BME280;69440;52.118;5.408;2023-07-20T12:33:11;101606.47;;;23.56;39.17
80128;BME280;69440;52.118;5.408;2023-07-20T12:35:42;101605.16;;;23.78;41.80
80128;BME280;69440;52.118;5.408;2023-07-20T12:38:09;101600.28;;;24.51;40.00
80128;BME280;69440;52.118;5.408;2023-07-20T12:40:36;101603.19;;;24.84;39.15
80128;BME280;69440;52.118;5.408;2023-07-20T12:43:02;101602.16;;;24.51;38.01
80128;BME280;69440;52.118;5.408;2023-07-20T12:45:30;101602.19;;;24.33;41.00
80128;BME280;69440;52.118;5.408;2023-07-20T12:47:56;101592.66;;;24.01;41.81
80128;BME280;69440;52.118;5.408;2023-07-20T12:50:23;101603.03;;;23.72;42.91
80128;BME280;69440;52.118;5.408;2023-07-20T12:52:49;101598.22;;;23.38;44.80
80128;BME280;69440;52.118;5.408;2023-07-20T12:55:16;101606.72;;;23.17;45.03
80128;BME280;69440;52.118;5.408;2023-07-20T12:57:43;101595.41;;;23.03;45.71
80128;BME280;69440;52.118;5.408;2023-07-20T13:00:10;101593.31;;;22.87;44.01
80128;BME280;69440;52.118;5.408;2023-07-20T13:02:38;101595.91;;;22.79;43.91
80128;BME280;69440;52.118;5.408;2023-07-20T13:05:05;101604.91;;;22.71;43.16
80128;BME280;69440;52.118;5.408;2023-07-20T13:07:36;101601.75;;;22.66;43.58
80128;BME280;69440;52.118;5.408;2023-07-20T13:10:06;101593.84;;;22.53;43.51
80128;BME280;69440;52.118;5.408;2023-07-20T13:12:33;101597.78;;;22.41;43.86
80128;BME280;69440;52.118;5.408;2023-07-20T13:15:05;101597.63;;;22.43;44.97
80128;BME280;69440;52.118;5.408;2023-07-20T13:17:33;101592.69;;;22.56;47.05